Karla A — TCCR8 — position and weather

sailwx.info

Track history (hours):
 
Tides and Currents Weather Stations Pressure Air Temp Water Temp Dewpoint Dewpoint Depression Visibility Wind Speed Wind Dir Waves Ship Positions

Karla A

Last reported at 2015-Apr-17 16:13 UTC. Time now 2015-Apr-18 08:52 UTC.
Position N 37°46' E 025°47'.

Length 155 m; draft 8.6 m.

Type: Ship (hazmat cat A). MMSI: 271000744.

Date/timePositionNaut miles runAvg speedWind from/ knotsBaromVisibWave heightAir tempDewpointWater temp
2015-Apr-17 16:13N 37°46' E 025°47'1314.1
2015-Apr-17 15:17N 37°33' E 025°48'1013.4
2015-Apr-17 14:33N 37°24' E 025°53'1313.0
2015-Apr-17 13:33N 37°13' E 026°02'1612.8
2015-Apr-17 12:17N 36°59' E 026°12'1312.9
2015-Apr-17 11:14N 36°49' E 026°22'26812.7
2015-Apr-16 14:06N 33°29' E 029°60'812.7
2015-Apr-16 13:26N 33°22' E 030°06'1412.9
2015-Apr-16 12:21N 33°12' E 030°18'2712.7
2015-Apr-16 10:14N 32°52' E 030°39'  
2015-Apr-10 19:11N 36°25' E 026°46'1013.0
2015-Apr-10 18:26N 36°32' E 026°38'2713.1
2015-Apr-10 16:22N 36°53' E 026°16'1212.6
2015-Apr-10 15:26N 37°03' E 026°08'2412.8
2015-Apr-10 13:33N 37°24' E 025°55'2512.2
2015-Apr-10 11:32N 37°48' E 025°47'  
Track history (hours):
 
Tides and Currents Weather Stations Pressure Air Temp Water Temp Dewpoint Dewpoint Depression Visibility Wind Speed Wind Dir Waves Ship Positions

Karla A

Last reported at 2015-Apr-17 16:13 UTC. Time now 2015-Apr-18 08:52 UTC.
Position N 37°46' E 025°47'.

Length 155 m; draft 8.6 m.

Type: Ship (hazmat cat A). MMSI: 271000744.

Date/timePositionNaut miles runAvg speedWind from/ knotsBaromVisibWave heightAir tempDewpointWater temp
2015-Apr-17 16:13N 37°46' E 025°47'1314.1
2015-Apr-17 15:17N 37°33' E 025°48'1013.4
2015-Apr-17 14:33N 37°24' E 025°53'1313.0
2015-Apr-17 13:33N 37°13' E 026°02'1612.8
2015-Apr-17 12:17N 36°59' E 026°12'1312.9
2015-Apr-17 11:14N 36°49' E 026°22'26812.7
2015-Apr-16 14:06N 33°29' E 029°60'812.7
2015-Apr-16 13:26N 33°22' E 030°06'1412.9
2015-Apr-16 12:21N 33°12' E 030°18'2712.7
2015-Apr-16 10:14N 32°52' E 030°39'  
2015-Apr-10 19:11N 36°25' E 026°46'1013.0
2015-Apr-10 18:26N 36°32' E 026°38'2713.1
2015-Apr-10 16:22N 36°53' E 026°16'1212.6
2015-Apr-10 15:26N 37°03' E 026°08'2412.8
2015-Apr-10 13:33N 37°24' E 025°55'2512.2
2015-Apr-10 11:32N 37°48' E 025°47'  

Dump ship's entire track history